Time;durP1;ratioP1;P1;durP2;ratioP2;P2;SDS_P1;SDS_P2;PMS_P1;PMS_P2;Temp;Humidity;BMP_temperature;BMP_pressure;BME280_temperature;BME280_humidity;BME280_pressure;Samples;Min_cycle;Max_cycle;Signal;HPM_P1;HPM_P2
2021/03/21 00:01:43;;;;;;;22.35;13.05;;;;;;;;;;4881720;29;20397;-68
2021/03/21 00:04:11;;;;;;;22.63;13.85;;;;;;;;;;4882959;29;20036;-69
2021/03/21 00:06:37;;;;;;;25.98;14.25;;;;;;;;;;4882673;29;20060;-69
2021/03/21 00:09:03;;;;;;;25.90;14.02;;;;;;;;;;4882631;29;20052;-69
2021/03/21 00:11:29;;;;;;;25.23;14.82;;;;;;;;;;4882813;29;20373;-66
2021/03/21 00:13:56;;;;;;;24.83;14.05;;;;;;;;;;4882182;29;20101;-67
2021/03/21 00:16:22;;;;;;;19.63;12.05;;;;;;;;;;4882345;29;20473;-69
2021/03/21 00:18:48;;;;;;;21.80;13.25;;;;;;;;;;4880870;29;20057;-67
2021/03/21 00:21:15;;;;;;;22.67;12.82;;;;;;;;;;4882951;29;20025;-68
2021/03/21 00:23:41;;;;;;;23.55;13.98;;;;;;;;;;4882365;29;20064;-68
2021/03/21 00:26:08;;;;;;;26.17;15.35;;;;;;;;;;4881998;29;20037;-69
2021/03/21 00:28:35;;;;;;;26.38;15.25;;;;;;;;;;4882214;29;20035;-69
2021/03/21 00:31:02;;;;;;;24.73;14.82;;;;;;;;;;4882741;29;20043;-70
2021/03/21 00:33:29;;;;;;;25.38;16.48;;;;;;;;;;4881803;29;20085;-69
2021/03/21 00:35:55;;;;;;;24.50;15.23;;;;;;;;;;4882411;29;20104;-71
2021/03/21 00:38:26;;;;;;;24.67;14.80;;;;;;;;;;4881165;29;20033;-70
2021/03/21 00:40:53;;;;;;;30.38;16.70;;;;;;;;;;4880713;29;20100;-70
2021/03/21 00:43:19;;;;;;;27.02;15.90;;;;;;;;;;4881047;29;20040;-70
2021/03/21 00:45:46;;;;;;;29.30;16.15;;;;;;;;;;4881982;29;20106;-69
2021/03/21 00:48:17;;;;;;;28.98;16.92;;;;;;;;;;4881711;29;20044;-69
2021/03/21 00:50:43;;;;;;;25.67;14.82;;;;;;;;;;4881894;29;20478;-70
2021/03/21 00:53:09;;;;;;;26.50;15.70;;;;;;;;;;4881769;29;20033;-69
2021/03/21 00:55:36;;;;;;;29.88;16.35;;;;;;;;;;4881793;29;20477;-70
2021/03/21 00:58:02;;;;;;;26.23;15.57;;;;;;;;;;4882038;29;20029;-71
2021/03/21 01:00:30;;;;;;;27.58;15.77;;;;;;;;;;4881964;29;20029;-70
2021/03/21 01:02:56;;;;;;;27.08;15.65;;;;;;;;;;4880371;29;20032;-69
2021/03/21 01:05:29;;;;;;;25.67;15.50;;;;;;;;;;4880678;29;20103;-71
2021/03/21 01:07:55;;;;;;;;;;;;;;;;;;4882242;29;20025;-71
2021/03/21 01:10:31;;;;;;;28.63;15.40;;;;;;;;;;4881213;29;19970;-69
2021/03/21 01:12:59;;;;;;;29.10;15.18;;;;;;;;;;4880736;29;20407;-68
2021/03/21 01:15:26;;;;;;;27.27;16.17;;;;;;;;;;4881439;29;20125;-69
2021/03/21 01:17:52;;;;;;;32.10;16.63;;;;;;;;;;4889574;29;20052;-68
2021/03/21 01:20:20;;;;;;;28.98;15.75;;;;;;;;;;4903120;29;20131;-68
2021/03/21 01:22:46;;;;;;;32.03;16.30;;;;;;;;;;4918571;29;20071;-68
2021/03/21 01:25:13;;;;;;;29.20;16.60;;;;;;;;;;4902205;29;20035;-66
2021/03/21 01:27:39;;;;;;;29.27;15.70;;;;;;;;;;4902397;29;20031;-66
2021/03/21 01:30:07;;;;;;;26.23;16.05;;;;;;;;;;4918432;29;20384;-68
2021/03/21 01:32:33;;;;;;;30.08;15.57;;;;;;;;;;4919127;29;20032;-67
2021/03/21 01:34:59;;;;;;;29.23;15.90;;;;;;;;;;4918647;29;20060;-68
2021/03/21 01:37:25;;;;;;;28.55;16.50;;;;;;;;;;4918584;29;20039;-68
2021/03/21 01:39:51;;;;;;;30.17;17.98;;;;;;;;;;4902654;29;20377;-68
2021/03/21 01:42:17;;;;;;;33.38;18.98;;;;;;;;;;4901850;29;20024;-67
2021/03/21 01:44:44;;;;;;;31.60;18.13;;;;;;;;;;4918186;29;20024;-67
2021/03/21 01:47:17;;;;;;;29.67;17.70;;;;;;;;;;4919008;29;20032;-67
2021/03/21 01:49:46;;;;;;;32.33;18.65;;;;;;;;;;4918363;29;20035;-67
2021/03/21 01:52:26;;;;;;;35.80;18.40;;;;;;;;;;4918543;29;20056;-66
2021/03/21 01:54:53;;;;;;;35.45;19.23;;;;;;;;;;4902421;29;20036;-67
2021/03/21 01:57:19;;;;;;;34.65;19.23;;;;;;;;;;4917967;29;20155;-67
2021/03/21 01:59:45;;;;;;;38.70;20.50;;;;;;;;;;4918251;29;20107;-68
2021/03/21 02:02:12;;;;;;;38.97;20.23;;;;;;;;;;4918551;29;20459;-68
2021/03/21 02:04:38;;;;;;;39.65;21.05;;;;;;;;;;4917881;29;20499;-69
2021/03/21 02:07:26;;;;;;;40.03;20.63;;;;;;;;;;4918662;29;20032;-66
2021/03/21 02:09:58;;;;;;;46.55;23.30;;;;;;;;;;4918092;29;20024;-68
2021/03/21 02:12:25;;;;;;;38.15;21.50;;;;;;;;;;4917817;29;20032;-66
2021/03/21 02:14:51;;;;;;;39.88;20.83;;;;;;;;;;4917940;29;20131;-67
2021/03/21 02:17:21;;;;;;;35.13;19.70;;;;;;;;;;4918282;29;20079;-70
2021/03/21 02:19:53;;;;;;;33.17;18.77;;;;;;;;;;4917573;29;20492;-68
2021/03/21 02:22:29;;;;;;;35.63;19.90;;;;;;;;;;4917833;29;20032;-67
2021/03/21 02:25:14;;;;;;;33.83;18.95;;;;;;;;;;4917530;29;20408;-69
2021/03/21 02:27:58;;;;;;;37.80;19.05;;;;;;;;;;4917890;29;20060;-66
2021/03/21 02:30:27;;;;;;;33.28;19.75;;;;;;;;;;4917737;29;20025;-69
2021/03/21 02:32:53;;;;;;;33.15;20.40;;;;;;;;;;4900337;29;20020;-66
2021/03/21 02:35:45;;;;;;;31.90;18.58;;;;;;;;;;4918176;29;20036;-65
2021/03/21 02:38:32;;;;;;;32.13;18.75;;;;;;;;;;4914087;29;20122;-67
2021/03/21 02:41:02;;;;;;;33.40;18.90;;;;;;;;;;4917265;29;20052;-65
2021/03/21 02:43:32;;;;;;;35.70;19.50;;;;;;;;;;4917832;29;20047;-66
2021/03/21 02:46:00;;;;;;;29.77;17.60;;;;;;;;;;4917487;29;20145;-65
2021/03/21 02:48:26;;;;;;;30.67;17.20;;;;;;;;;;4917495;29;20020;-66
2021/03/21 02:51:08;;;;;;;28.90;17.70;;;;;;;;;;4917834;29;20032;-65
2021/03/21 02:53:49;;;;;;;28.90;16.88;;;;;;;;;;4900379;29;20024;-65
2021/03/21 02:56:20;;;;;;;30.73;17.58;;;;;;;;;;4917674;29;20430;-66
2021/03/21 02:58:52;;;;;;;36.88;19.83;;;;;;;;;;4901176;29;20024;-66
2021/03/21 03:01:23;;;;;;;34.35;18.73;;;;;;;;;;4917405;29;20473;-65
2021/03/21 03:03:51;;;;;;;26.08;15.70;;;;;;;;;;4917881;29;20032;-66
2021/03/21 03:06:22;;;;;;;27.73;16.65;;;;;;;;;;4917294;29;20428;-66
2021/03/21 03:08:52;;;;;;;31.10;17.65;;;;;;;;;;4917545;29;20028;-66
2021/03/21 03:11:20;;;;;;;28.35;17.02;;;;;;;;;;4917873;29;20032;-64
2021/03/21 03:13:48;;;;;;;29.33;16.30;;;;;;;;;;4900132;29;20033;-67
2021/03/21 03:16:14;;;;;;;28.85;16.30;;;;;;;;;;4917489;29;20032;-66
2021/03/21 03:18:49;;;;;;;30.23;17.65;;;;;;;;;;4917467;29;20135;-66
2021/03/21 03:21:24;;;;;;;29.65;18.00;;;;;;;;;;4917582;29;20531;-66
2021/03/21 03:24:04;;;;;;;32.53;18.48;;;;;;;;;;4900426;29;20152;-65
2021/03/21 03:26:39;;;;;;;29.00;17.52;;;;;;;;;;4917736;29;20056;-65
2021/03/21 03:29:08;;;;;;;28.38;17.65;;;;;;;;;;4917501;29;20059;-66
2021/03/21 03:31:37;;;;;;;29.90;17.83;;;;;;;;;;4917567;29;20028;-66
2021/03/21 03:34:04;;;;;;;32.40;18.10;;;;;;;;;;4921056;29;20032;-66
2021/03/21 03:36:30;;;;;;;29.77;18.40;;;;;;;;;;4903863;29;20051;-67
2021/03/21 03:38:57;;;;;;;35.35;20.00;;;;;;;;;;4921327;29;20067;-66
2021/03/21 03:41:39;;;;;;;34.83;19.33;;;;;;;;;;4904072;29;20075;-67
2021/03/21 03:44:26;;;;;;;31.55;19.15;;;;;;;;;;4920660;29;20070;-66
2021/03/21 03:47:00;;;;;;;36.10;19.67;;;;;;;;;;4904538;29;20032;-67
2021/03/21 03:49:33;;;;;;;31.73;18.75;;;;;;;;;;4920638;29;20028;-67
2021/03/21 03:52:05;;;;;;;32.28;19.25;;;;;;;;;;4921179;29;20341;-66
2021/03/21 03:54:36;;;;;;;35.90;20.35;;;;;;;;;;4920752;29;20492;-68
2021/03/21 03:57:02;;;;;;;21.50;13.27;;;;;;;;;;4920437;29;20024;-66
2021/03/21 03:59:49;;;;;;;27.35;17.27;;;;;;;;;;4920414;29;20262;-66
2021/03/21 04:02:19;;;;;;;30.25;17.77;;;;;;;;;;4865923;29;20077;-66
2021/03/21 04:05:07;;;;;;;32.10;18.45;;;;;;;;;;4920070;29;20403;-65
2021/03/21 04:07:36;;;;;;;30.95;18.65;;;;;;;;;;4920859;29;20032;-69
2021/03/21 04:10:22;;;;;;;37.35;21.20;;;;;;;;;;4919886;29;20546;-66
2021/03/21 04:12:48;;;;;;;38.70;22.88;;;;;;;;;;4902643;29;20079;-66
2021/03/21 04:15:16;;;;;;;38.53;20.88;;;;;;;;;;4920128;29;20024;-65
2021/03/21 04:17:45;;;;;;;35.85;20.23;;;;;;;;;;4919694;29;20520;-67
2021/03/21 04:20:23;;;;;;;37.58;19.85;;;;;;;;;;4920608;29;20043;-65
2021/03/21 04:22:57;;;;;;;33.75;19.90;;;;;;;;;;4921062;29;20028;-65
2021/03/21 04:25:26;;;;;;;33.15;19.17;;;;;;;;;;4919691;29;20492;-65
2021/03/21 04:27:52;;;;;;;35.92;21.00;;;;;;;;;;4903287;29;20036;-66
2021/03/21 04:30:27;;;;;;;38.88;20.75;;;;;;;;;;4920193;29;20024;-65
2021/03/21 04:32:54;;;;;;;34.80;20.05;;;;;;;;;;4919810;29;20471;-66
2021/03/21 04:35:23;;;;;;;30.95;18.63;;;;;;;;;;4919819;29;20361;-67
2021/03/21 04:38:03;;;;;;;30.77;18.13;;;;;;;;;;4919975;29;20031;-67
2021/03/21 04:40:29;;;;;;;31.55;18.48;;;;;;;;;;4920224;29;20025;-67
2021/03/21 04:42:58;;;;;;;29.52;18.20;;;;;;;;;;4919833;29;20029;-66
2021/03/21 04:45:27;;;;;;;31.55;18.02;;;;;;;;;;4919139;29;20028;-66
2021/03/21 04:48:04;;;;;;;30.90;18.45;;;;;;;;;;4919867;29;20016;-67
2021/03/21 04:50:32;;;;;;;32.22;18.98;;;;;;;;;;4919496;29;20020;-66
2021/03/21 04:52:58;;;;;;;35.60;19.58;;;;;;;;;;4919523;29;20464;-66
2021/03/21 04:55:33;;;;;;;33.40;18.85;;;;;;;;;;4919672;29;20032;-67
2021/03/21 04:58:03;;;;;;;38.22;20.38;;;;;;;;;;4920244;29;20075;-67
2021/03/21 05:00:30;;;;;;;42.35;22.50;;;;;;;;;;4902323;29;20137;-67
2021/03/21 05:02:58;;;;;;;35.88;21.13;;;;;;;;;;4919300;29;20391;-67
2021/03/21 05:05:27;;;;;;;30.15;18.17;;;;;;;;;;4919825;29;20110;-68
2021/03/21 05:07:56;;;;;;;29.45;17.15;;;;;;;;;;4919444;29;20028;-68
2021/03/21 05:10:37;;;;;;;29.88;17.92;;;;;;;;;;4919314;29;20027;-68
2021/03/21 05:13:22;;;;;;;32.65;18.88;;;;;;;;;;4919045;29;20028;-67
2021/03/21 05:15:51;;;;;;;31.20;17.88;;;;;;;;;;4919019;29;20032;-68
2021/03/21 05:18:29;;;;;;;32.38;18.58;;;;;;;;;;4902267;29;20084;-67
2021/03/21 05:21:16;;;;;;;31.83;19.48;;;;;;;;;;4919114;29;20464;-68
2021/03/21 05:24:00;;;;;;;33.38;19.80;;;;;;;;;;4919218;29;20036;-68
2021/03/21 05:26:33;;;;;;;32.78;19.67;;;;;;;;;;4919151;29;20028;-68
2021/03/21 05:29:05;;;;;;;32.33;19.75;;;;;;;;;;4918885;29;20028;-68
2021/03/21 05:31:31;;;;;;;25.13;15.27;;;;;;;;;;4919444;29;20020;-68
2021/03/21 05:33:58;;;;;;;35.78;21.08;;;;;;;;;;4918620;29;20035;-68
2021/03/21 05:36:27;;;;;;;36.17;21.27;;;;;;;;;;4918988;29;20033;-69
2021/03/21 05:38:55;;;;;;;35.47;20.20;;;;;;;;;;4919200;29;20016;-68
2021/03/21 05:41:34;;;;;;;35.38;20.70;;;;;;;;;;4901608;29;20024;-68
2021/03/21 05:44:29;;;;;;;38.60;21.60;;;;;;;;;;4901875;29;20066;-69
2021/03/21 05:47:16;;;;;;;35.55;20.88;;;;;;;;;;4902761;29;20072;-69
2021/03/21 05:49:55;;;;;;;40.17;22.17;;;;;;;;;;4918307;29;20472;-69
2021/03/21 05:52:35;;;;;;;39.63;21.05;;;;;;;;;;4918307;29;20024;-69
2021/03/21 05:55:01;;;;;;;37.75;21.92;;;;;;;;;;4918625;29;20486;-69
2021/03/21 05:57:53;;;;;;;34.75;21.42;;;;;;;;;;4901596;29;20036;-68
2021/03/21 06:00:28;;;;;;;35.47;20.80;;;;;;;;;;4901605;29;20112;-69
2021/03/21 06:03:17;;;;;;;37.95;21.70;;;;;;;;;;4918408;29;20039;-68
2021/03/21 06:05:43;;;;;;;38.85;21.15;;;;;;;;;;4918412;29;20495;-68
2021/03/21 06:08:09;;;;;;;37.72;21.75;;;;;;;;;;4918119;29;20050;-67
2021/03/21 06:10:45;;;;;;;37.35;21.70;;;;;;;;;;4901038;29;20032;-68
2021/03/21 06:13:18;;;;;;;39.05;21.50;;;;;;;;;;4918276;29;20476;-68
2021/03/21 06:16:11;;;;;;;35.40;20.17;;;;;;;;;;4918031;29;20420;-68
2021/03/21 06:18:37;;;;;;;36.25;21.52;;;;;;;;;;4914743;29;20096;-69
2021/03/21 06:21:03;;;;;;;36.33;20.65;;;;;;;;;;4918448;29;20029;-68
2021/03/21 06:23:47;;;;;;;35.22;21.38;;;;;;;;;;4917786;29;20038;-68
2021/03/21 06:26:32;;;;;;;35.20;20.83;;;;;;;;;;4918107;29;20039;-68
2021/03/21 06:28:58;;;;;;;39.25;22.38;;;;;;;;;;4918228;29;20028;-69
2021/03/21 06:31:33;;;;;;;36.95;22.10;;;;;;;;;;4917695;29;20028;-68
2021/03/21 06:34:12;;;;;;;38.67;22.75;;;;;;;;;;4900966;29;20036;-68
2021/03/21 06:36:45;;;;;;;37.65;22.63;;;;;;;;;;4918228;29;20028;-69
2021/03/21 06:39:22;;;;;;;60.05;32.40;;;;;;;;;;4917892;29;20028;-68
2021/03/21 06:41:48;;;;;;;44.33;27.15;;;;;;;;;;4901287;29;20020;-67
2021/03/21 06:44:40;;;;;;;46.45;29.15;;;;;;;;;;4917258;29;20028;-68
2021/03/21 06:47:12;;;;;;;39.38;24.83;;;;;;;;;;4897257;29;20044;-69
2021/03/21 06:49:42;;;;;;;38.65;25.02;;;;;;;;;;4917539;29;20028;-68
2021/03/21 06:52:08;;;;;;;43.42;25.10;;;;;;;;;;4900725;29;20031;-68
2021/03/21 06:54:37;;;;;;;40.80;23.88;;;;;;;;;;4917422;29;20111;-69
2021/03/21 06:57:06;;;;;;;42.17;25.25;;;;;;;;;;4917664;29;20047;-68
2021/03/21 07:00:00;;;;;;;44.47;28.17;;;;;;;;;;4917091;29;20370;-69
2021/03/21 07:02:41;;;;;;;50.88;29.73;;;;;;;;;;4917926;29;20063;-69
2021/03/21 07:05:10;;;;;;;52.42;30.17;;;;;;;;;;4917285;29;20107;-69
2021/03/21 07:08:05;;;;;;;49.05;29.88;;;;;;;;;;4916840;29;20563;-68
2021/03/21 07:10:34;;;;;;;72.38;37.00;;;;;;;;;;4917572;29;20043;-68
2021/03/21 07:13:12;;;;;;;94.30;43.90;;;;;;;;;;4916634;29;20422;-69
2021/03/21 07:15:57;;;;;;;73.47;37.33;;;;;;;;;;4917553;29;20060;-72
2021/03/21 07:18:51;;;;;;;75.05;37.45;;;;;;;;;;4917772;29;20107;-72
2021/03/21 07:21:17;;;;;;;88.30;41.67;;;;;;;;;;4900379;29;20028;-75
2021/03/21 07:24:04;;;;;;;50.22;28.65;;;;;;;;;;4899462;29;20511;-75
2021/03/21 07:26:49;;;;;;;49.65;30.15;;;;;;;;;;4898416;29;20528;-74
2021/03/21 07:29:37;;;;;;;57.22;34.53;;;;;;;;;;4916013;29;20038;-73
2021/03/21 07:32:07;;;;;;;64.30;36.08;;;;;;;;;;4913567;29;20092;-74
2021/03/21 07:34:39;;;;;;;61.38;36.15;;;;;;;;;;4899537;29;20051;-73
2021/03/21 07:37:14;;;;;;;67.25;37.15;;;;;;;;;;4899350;29;20035;-74
2021/03/21 07:39:50;;;;;;;60.92;35.95;;;;;;;;;;4915557;29;20020;-73
2021/03/21 07:42:24;;;;;;;61.63;36.45;;;;;;;;;;4897812;29;20023;-72
2021/03/21 07:44:57;;;;;;;92.85;49.95;;;;;;;;;;4899556;29;20456;-72
2021/03/21 07:47:28;;;;;;;79.97;43.80;;;;;;;;;;4899696;29;20026;-72
2021/03/21 07:50:13;;;;;;;67.18;36.70;;;;;;;;;;4897533;29;20062;-71
2021/03/21 07:52:48;;;;;;;66.18;37.47;;;;;;;;;;4897536;29;20054;-75
2021/03/21 07:55:22;;;;;;;62.17;34.50;;;;;;;;;;4897152;29;20523;-75
2021/03/21 07:57:51;;;;;;;79.93;46.53;;;;;;;;;;4899471;29;20032;-75
2021/03/21 08:00:17;;;;;;;77.32;44.35;;;;;;;;;;4897179;29;20497;-75
2021/03/21 08:02:43;;;;;;;65.22;38.42;;;;;;;;;;4899555;29;20087;-73
2021/03/21 08:05:23;;;;;;;63.60;38.05;;;;;;;;;;4899371;29;20119;-73
2021/03/21 08:07:52;;;;;;;101.32;52.65;;;;;;;;;;4917046;29;20024;-71
2021/03/21 08:10:33;;;;;;;78.78;43.78;;;;;;;;;;4899997;29;20050;-75
2021/03/21 08:13:02;;;;;;;135.68;65.45;;;;;;;;;;4888848;29;20033;-72
2021/03/21 08:15:30;;;;;;;106.20;55.10;;;;;;;;;;4900534;29;20032;-77
2021/03/21 08:17:59;;;;;;;86.72;46.50;;;;;;;;;;4912845;29;20393;-73
2021/03/21 08:20:27;;;;;;;73.03;42.15;;;;;;;;;;4902356;29;20503;-75
2021/03/21 08:23:12;;;;;;;81.93;45.35;;;;;;;;;;4903243;29;20036;-73
2021/03/21 08:25:38;;;;;;;81.88;45.03;;;;;;;;;;4919580;29;20239;-71
2021/03/21 08:28:05;;;;;;;53.58;32.83;;;;;;;;;;4903033;29;20052;-72
2021/03/21 08:31:07;;;;;;;62.38;37.38;;;;;;;;;;4902542;29;20112;-72
2021/03/21 08:33:36;;;;;;;67.32;39.65;;;;;;;;;;4824102;29;20030;-74
2021/03/21 08:36:22;;;;;;;64.15;37.15;;;;;;;;;;4809138;29;20163;-73
2021/03/21 08:38:55;;;;;;;64.25;36.25;;;;;;;;;;4809345;29;20050;-71
2021/03/21 08:41:22;;;;;;;70.07;40.40;;;;;;;;;;4808212;29;20042;-74
2021/03/21 08:43:57;;;;;;;69.65;39.80;;;;;;;;;;4807302;29;20130;-72
2021/03/21 08:46:24;;;;;;;66.72;37.78;;;;;;;;;;4808758;29;20075;-72
2021/03/21 08:49:04;;;;;;;75.03;39.60;;;;;;;;;;4808795;29;20192;-72
2021/03/21 08:51:42;;;;;;;71.07;41.22;;;;;;;;;;4799008;29;20038;-70
2021/03/21 08:54:20;;;;;;;71.85;41.15;;;;;;;;;;4808345;29;20043;-74
2021/03/21 08:57:04;;;;;;;76.20;42.58;;;;;;;;;;4820355;29;20039;-74
2021/03/21 08:59:32;;;;;;;76.32;39.58;;;;;;;;;;4809135;29;20027;-72
2021/03/21 09:02:01;;;;;;;67.03;37.17;;;;;;;;;;4808871;29;20117;-71
2021/03/21 09:04:27;;;;;;;78.90;43.78;;;;;;;;;;4824022;29;20121;-73
2021/03/21 09:06:54;;;;;;;77.68;43.67;;;;;;;;;;4847427;29;20028;-69
2021/03/21 09:09:26;;;;;;;64.65;37.67;;;;;;;;;;4901660;29;20031;-76
2021/03/21 09:11:52;;;;;;;;;;;;;;;;;;4902715;29;20035;-73
2021/03/21 09:14:32;;;;;;;80.30;42.35;;;;;;;;;;4918997;29;19911;-73
2021/03/21 09:17:06;;;;;;;78.20;41.70;;;;;;;;;;4901717;29;20087;-72
2021/03/21 09:19:36;;;;;;;76.70;42.03;;;;;;;;;;4919561;29;20067;-75
2021/03/21 09:22:28;;;;;;;80.50;43.20;;;;;;;;;;4902526;29;20427;-73
2021/03/21 09:25:02;;;;;;;87.13;44.87;;;;;;;;;;4919307;29;20024;-70
2021/03/21 09:27:33;;;;;;;76.90;41.88;;;;;;;;;;4902179;29;20086;-71
2021/03/21 09:30:03;;;;;;;73.85;40.55;;;;;;;;;;4900484;29;20357;-70
2021/03/21 09:32:30;;;;;;;67.22;37.53;;;;;;;;;;4900691;29;20017;-72
2021/03/21 09:35:28;;;;;;;74.18;38.95;;;;;;;;;;4898521;29;20055;-72
2021/03/21 09:37:56;;;;;;;76.60;41.22;;;;;;;;;;4901147;29;20112;-72
2021/03/21 09:40:27;;;;;;;65.72;36.35;;;;;;;;;;4900965;29;20028;-73
2021/03/21 09:42:54;;;;;;;54.38;29.65;;;;;;;;;;4900663;29;20372;-73
2021/03/21 09:45:20;;;;;;;71.30;39.67;;;;;;;;;;4918143;29;20024;-71
2021/03/21 09:47:59;;;;;;;74.45;39.70;;;;;;;;;;4900942;29;20416;-72
2021/03/21 09:50:29;;;;;;;65.38;36.42;;;;;;;;;;4899066;29;20478;-74
2021/03/21 09:53:21;;;;;;;61.85;35.50;;;;;;;;;;4900653;29;20024;-73
2021/03/21 09:55:47;;;;;;;69.88;37.15;;;;;;;;;;4895214;29;20040;-72
2021/03/21 09:58:19;;;;;;;78.25;43.70;;;;;;;;;;4917444;29;20016;-72
2021/03/21 10:00:58;;;;;;;72.25;37.70;;;;;;;;;;4901084;29;20020;-72
2021/03/21 10:03:27;;;;;;;74.35;39.67;;;;;;;;;;4899391;29;20024;-72
2021/03/21 10:06:02;;;;;;;78.32;40.92;;;;;;;;;;4899730;29;20030;-71
2021/03/21 10:08:48;;;;;;;70.65;37.65;;;;;;;;;;4898711;29;20076;-70
2021/03/21 10:11:26;;;;;;;72.40;39.88;;;;;;;;;;4899268;29;20046;-70
2021/03/21 10:13:53;;;;;;;68.03;38.50;;;;;;;;;;4899012;29;20102;-69
2021/03/21 10:16:19;;;;;;;77.55;39.78;;;;;;;;;;4899474;29;20465;-71
2021/03/21 10:18:45;;;;;;;74.00;38.25;;;;;;;;;;4899075;29;20123;-71
2021/03/21 10:21:23;;;;;;;64.75;36.35;;;;;;;;;;4899328;29;20028;-71
2021/03/21 10:23:56;;;;;;;62.72;35.97;;;;;;;;;;4916733;29;20051;-73
2021/03/21 10:26:24;;;;;;;64.72;36.85;;;;;;;;;;4898655;29;20114;-73
2021/03/21 10:28:52;;;;;;;68.45;36.85;;;;;;;;;;4894244;29;20473;-72
2021/03/21 10:31:25;;;;;;;60.95;34.67;;;;;;;;;;4899522;29;20055;-70
2021/03/21 10:33:56;;;;;;;66.47;36.70;;;;;;;;;;4917677;29;20119;-75
2021/03/21 10:36:41;;;;;;;65.88;37.95;;;;;;;;;;4900964;29;20036;-75
2021/03/21 10:39:07;;;;;;;69.75;37.45;;;;;;;;;;4900578;29;20152;-73
2021/03/21 10:41:55;;;;;;;62.90;36.58;;;;;;;;;;4900396;29;20028;-77
2021/03/21 10:44:23;;;;;;;70.57;38.67;;;;;;;;;;4900821;29;20039;-74
2021/03/21 10:46:54;;;;;;;65.32;37.97;;;;;;;;;;4900459;29;20024;-75
2021/03/21 10:49:38;;;;;;;81.38;45.55;;;;;;;;;;4900922;29;20480;-76
2021/03/21 10:52:07;;;;;;;68.43;39.92;;;;;;;;;;4917403;29;20056;-77
2021/03/21 10:54:33;;;;;;;71.65;40.50;;;;;;;;;;4917323;29;20464;-74
2021/03/21 10:57:18;;;;;;;67.13;38.00;;;;;;;;;;4900638;29;20068;-71
2021/03/21 11:00:01;;;;;;;73.40;40.58;;;;;;;;;;4916935;29;20079;-73
2021/03/21 11:02:27;;;;;;;69.78;40.30;;;;;;;;;;4899895;29;20075;-72
2021/03/21 11:05:04;;;;;;;70.38;40.95;;;;;;;;;;4917161;29;20020;-74
2021/03/21 11:07:31;;;;;;;64.72;37.47;;;;;;;;;;4897905;29;20071;-73
2021/03/21 11:09:59;;;;;;;67.93;39.00;;;;;;;;;;4900158;29;20032;-74
2021/03/21 11:12:31;;;;;;;66.38;37.35;;;;;;;;;;4899759;29;20483;-77
2021/03/21 11:14:57;;;;;;;75.20;42.15;;;;;;;;;;4899873;29;20111;-76
2021/03/21 11:17:26;;;;;;;63.78;36.20;;;;;;;;;;4917123;29;20028;-75
2021/03/21 11:19:56;;;;;;;76.53;42.83;;;;;;;;;;4900116;29;20163;-76
2021/03/21 11:22:26;;;;;;;69.22;40.17;;;;;;;;;;4899760;29;20471;-74
2021/03/21 11:24:52;;;;;;;70.22;39.60;;;;;;;;;;4900119;29;20062;-72
2021/03/21 11:27:26;;;;;;;66.35;37.35;;;;;;;;;;4900031;29;20028;-73
2021/03/21 11:29:52;;;;;;;70.72;40.25;;;;;;;;;;4916556;29;20099;-73
2021/03/21 11:32:29;;;;;;;70.75;41.83;;;;;;;;;;4916973;29;20016;-74
2021/03/21 11:35:21;;;;;;;78.18;43.38;;;;;;;;;;4898313;29;20087;-77
2021/03/21 11:37:47;;;;;;;65.90;38.35;;;;;;;;;;4899720;29;20032;-74
2021/03/21 11:40:16;;;;;;;65.78;37.83;;;;;;;;;;4900009;29;20135;-76
2021/03/21 11:42:44;;;;;;;62.10;36.47;;;;;;;;;;4916062;29;20439;-75
2021/03/21 11:45:13;;;;;;;58.97;35.10;;;;;;;;;;4915471;29;20052;-77
2021/03/21 11:47:40;;;;;;;61.92;36.35;;;;;;;;;;4915853;29;20133;-74
2021/03/21 11:50:07;;;;;;;63.83;37.92;;;;;;;;;;4899591;29;20032;-74
2021/03/21 11:52:38;;;;;;;66.65;38.03;;;;;;;;;;4917307;29;20028;-76
2021/03/21 11:55:04;;;;;;;66.25;37.97;;;;;;;;;;4904201;29;20476;-74
2021/03/21 11:57:46;;;;;;;67.45;38.85;;;;;;;;;;4903000;29;20071;-71
2021/03/21 12:00:13;;;;;;;;;;;;;;;;;;4887442;29;20159;-72
2021/03/21 12:02:39;;;;;;;61.22;36.28;;;;;;;;;;4918193;29;20263;-74
2021/03/21 12:05:07;;;;;;;65.75;38.25;;;;;;;;;;4902151;29;20145;-73
2021/03/21 12:07:33;;;;;;;64.45;39.45;;;;;;;;;;4902550;29;20484;-76
2021/03/21 12:10:00;;;;;;;63.13;38.58;;;;;;;;;;4902595;29;20451;-76
2021/03/21 12:12:32;;;;;;;71.20;41.08;;;;;;;;;;4902841;29;20028;-76
2021/03/21 12:14:58;;;;;;;71.93;41.20;;;;;;;;;;4903243;29;20028;-76
2021/03/21 12:17:24;;;;;;;85.18;47.97;;;;;;;;;;4902822;29;20059;-75
2021/03/21 12:19:51;;;;;;;80.57;48.03;;;;;;;;;;4903469;29;20536;-74
2021/03/21 12:22:17;;;;;;;76.70;45.95;;;;;;;;;;4903137;29;20020;-76
2021/03/21 12:24:51;;;;;;;77.85;43.42;;;;;;;;;;4894679;29;20020;-75
2021/03/21 12:27:37;;;;;;;82.97;47.47;;;;;;;;;;4894291;29;20025;-73
2021/03/21 12:30:08;;;;;;;68.40;39.67;;;;;;;;;;4903143;29;20024;-74
2021/03/21 12:32:40;;;;;;;76.38;41.40;;;;;;;;;;4902697;29;20024;-73
2021/03/21 12:35:32;;;;;;;82.00;46.15;;;;;;;;;;4920020;29;20473;-72
2021/03/21 12:38:00;;;;;;;73.22;41.47;;;;;;;;;;4898203;29;20489;-71
2021/03/21 12:40:33;;;;;;;72.70;41.67;;;;;;;;;;4902619;29;20460;-74
2021/03/21 12:43:17;;;;;;;75.70;42.72;;;;;;;;;;4902538;29;20488;-72
2021/03/21 12:46:02;;;;;;;76.57;42.38;;;;;;;;;;4902201;29;20028;-71
2021/03/21 12:48:28;;;;;;;69.20;39.30;;;;;;;;;;4902173;29;20056;-74
2021/03/21 12:50:55;;;;;;;129.73;68.63;;;;;;;;;;4902357;29;20490;-77
2021/03/21 12:53:23;;;;;;;68.38;40.47;;;;;;;;;;4918597;29;20052;-76
2021/03/21 12:55:50;;;;;;;76.50;43.60;;;;;;;;;;4902102;29;20032;-75
2021/03/21 12:58:17;;;;;;;73.72;42.67;;;;;;;;;;4901909;29;20052;-77
2021/03/21 13:00:43;;;;;;;72.90;41.47;;;;;;;;;;4900831;29;20562;-74
2021/03/21 13:03:10;;;;;;;74.68;41.38;;;;;;;;;;4901902;29;20115;-75
2021/03/21 13:05:37;;;;;;;67.75;40.60;;;;;;;;;;4901285;29;20532;-75
2021/03/21 13:08:04;;;;;;;92.07;50.05;;;;;;;;;;4920117;29;20035;-73
2021/03/21 13:10:34;;;;;;;86.13;49.72;;;;;;;;;;4901465;29;20032;-75
2021/03/21 13:13:01;;;;;;;68.72;40.65;;;;;;;;;;4918525;29;20547;-73
2021/03/21 13:15:27;;;;;;;73.68;42.10;;;;;;;;;;4917101;29;20024;-72
2021/03/21 13:17:54;;;;;;;68.30;40.40;;;;;;;;;;4884875;29;20053;-75
2021/03/21 13:20:21;;;;;;;68.30;38.85;;;;;;;;;;4859656;29;20026;-73
2021/03/21 13:22:47;;;;;;;74.82;42.72;;;;;;;;;;4862385;29;20052;-72
2021/03/21 13:25:22;;;;;;;68.25;37.55;;;;;;;;;;4861398;29;20021;-74
2021/03/21 13:27:49;;;;;;;66.80;38.78;;;;;;;;;;4861414;29;20053;-75
2021/03/21 13:30:16;;;;;;;65.63;38.55;;;;;;;;;;4861196;29;20029;-72
2021/03/21 13:32:42;;;;;;;71.57;39.85;;;;;;;;;;4859965;29;20037;-72
2021/03/21 13:35:09;;;;;;;69.32;40.17;;;;;;;;;;4862041;29;20033;-71
2021/03/21 13:37:35;;;;;;;70.32;40.67;;;;;;;;;;4862637;29;20037;-72
2021/03/21 13:40:04;;;;;;;85.20;48.40;;;;;;;;;;4861228;29;20030;-72
2021/03/21 13:42:30;;;;;;;81.97;46.30;;;;;;;;;;4860808;29;20032;-74
2021/03/21 13:44:57;;;;;;;68.65;40.28;;;;;;;;;;4861064;29;20537;-75
2021/03/21 13:47:23;;;;;;;69.25;38.35;;;;;;;;;;4859160;29;20026;-75
2021/03/21 13:49:49;;;;;;;88.95;49.78;;;;;;;;;;4860575;29;20029;-73
2021/03/21 13:52:15;;;;;;;64.80;39.35;;;;;;;;;;4860943;29;20029;-69
2021/03/21 13:54:41;;;;;;;69.63;40.10;;;;;;;;;;4860729;29;20030;-71
2021/03/21 13:57:07;;;;;;;73.38;42.35;;;;;;;;;;4860993;29;20381;-71
2021/03/21 13:59:33;;;;;;;80.95;47.08;;;;;;;;;;4862350;29;20051;-71
2021/03/21 14:01:59;;;;;;;79.68;43.88;;;;;;;;;;4860768;29;20034;-75
2021/03/21 14:04:26;;;;;;;69.45;40.47;;;;;;;;;;4863696;29;20093;-73
2021/03/21 14:06:52;;;;;;;68.25;37.58;;;;;;;;;;4868690;29;20037;-71
2021/03/21 14:09:18;;;;;;;66.60;37.80;;;;;;;;;;4860943;29;20090;-74
2021/03/21 14:11:44;;;;;;;93.75;50.45;;;;;;;;;;4860960;29;20032;-71
2021/03/21 14:14:11;;;;;;;101.32;54.63;;;;;;;;;;4860860;29;20025;-72
2021/03/21 14:16:37;;;;;;;72.53;41.65;;;;;;;;;;4859684;29;20040;-76
2021/03/21 14:19:03;;;;;;;85.45;45.92;;;;;;;;;;4888095;29;20052;-71
2021/03/21 14:21:29;;;;;;;78.03;42.97;;;;;;;;;;4882440;29;20473;-70
2021/03/21 14:23:55;;;;;;;80.63;43.95;;;;;;;;;;4882120;29;20025;-74
2021/03/21 14:26:22;;;;;;;73.07;42.08;;;;;;;;;;4882421;29;20539;-72
2021/03/21 14:28:48;;;;;;;73.68;40.50;;;;;;;;;;4882304;29;20131;-71
2021/03/21 14:31:14;;;;;;;67.00;37.72;;;;;;;;;;4881827;29;20020;-74
2021/03/21 14:33:40;;;;;;;66.63;38.55;;;;;;;;;;4882137;29;20025;-72
2021/03/21 14:36:07;;;;;;;65.10;36.70;;;;;;;;;;4881903;29;20071;-71
2021/03/21 14:38:34;;;;;;;68.40;40.42;;;;;;;;;;4881933;29;20044;-73
2021/03/21 14:41:00;;;;;;;64.93;38.67;;;;;;;;;;4882221;29;20115;-73
2021/03/21 14:43:26;;;;;;;81.32;45.42;;;;;;;;;;4881785;29;20034;-72
2021/03/21 14:45:53;;;;;;;68.00;40.22;;;;;;;;;;4898891;29;20380;-72